Time;durP1;ratioP1;P1;durP2;ratioP2;P2;SDS_P1;SDS_P2;PMS_P1;PMS_P2;Temp;Humidity;BMP_temperature;BMP_pressure;BME280_temperature;BME280_humidity;BME280_pressure;Samples;Min_cycle;Max_cycle;Signal;HPM_P1;HPM_P2
2022/07/12 00:02:12;;;;;;;4.63;0.82;;;;;;;;;;5060536;28;20082;-76
2022/07/12 00:04:38;;;;;;;2.53;0.70;;;;;;;;;;5060501;28;20054;-76
2022/07/12 00:07:04;;;;;;;3.28;0.70;;;;;;;;;;5063525;28;20052;-76
2022/07/12 00:09:30;;;;;;;3.38;0.70;;;;;;;;;;5059852;28;20464;-76
2022/07/12 00:11:57;;;;;;;3.40;0.82;;;;;;;;;;5059475;28;20032;-76
2022/07/12 00:14:24;;;;;;;2.50;0.65;;;;;;;;;;5065349;28;20054;-76
2022/07/12 00:16:51;;;;;;;3.05;0.60;;;;;;;;;;5056023;28;20032;-76
2022/07/12 00:19:17;;;;;;;3.58;0.95;;;;;;;;;;5064721;28;20063;-76
2022/07/12 00:21:43;;;;;;;4.25;0.77;;;;;;;;;;5063513;28;20032;-76
2022/07/12 00:24:09;;;;;;;3.00;0.80;;;;;;;;;;5062755;28;20029;-76
2022/07/12 00:26:35;;;;;;;3.25;1.25;;;;;;;;;;5053073;28;20075;-76
2022/07/12 00:29:02;;;;;;;3.67;0.90;;;;;;;;;;5058330;28;20033;-76
2022/07/12 00:31:28;;;;;;;5.32;0.90;;;;;;;;;;5060617;28;20032;-76
2022/07/12 00:33:54;;;;;;;4.85;1.00;;;;;;;;;;5056622;28;20063;-76
2022/07/12 00:36:20;;;;;;;3.40;0.70;;;;;;;;;;5020061;28;1128862;-76
2022/07/12 00:38:46;;;;;;;4.68;0.73;;;;;;;;;;5060871;28;20047;-76
2022/07/12 00:41:12;;;;;;;5.63;1.05;;;;;;;;;;5054881;28;20052;-76
2022/07/12 00:43:38;;;;;;;6.93;1.13;;;;;;;;;;5065073;28;20036;-76
2022/07/12 00:46:05;;;;;;;3.85;0.70;;;;;;;;;;5061628;28;20029;-76
2022/07/12 00:48:34;;;;;;;3.67;1.02;;;;;;;;;;5057247;28;20048;-76
2022/07/12 00:51:03;;;;;;;4.38;0.85;;;;;;;;;;5058406;28;20416;-76
2022/07/12 00:53:29;;;;;;;2.03;0.68;;;;;;;;;;5062920;28;20039;-76
2022/07/12 00:55:58;;;;;;;2.75;0.90;;;;;;;;;;5056352;28;20049;-76
2022/07/12 00:58:25;;;;;;;6.80;0.90;;;;;;;;;;5060377;28;20536;-76
2022/07/12 01:00:52;;;;;;;3.80;0.93;;;;;;;;;;5062847;28;20024;-76
2022/07/12 01:03:19;;;;;;;3.22;0.90;;;;;;;;;;5055372;28;20423;-76
2022/07/12 01:05:45;;;;;;;6.20;0.70;;;;;;;;;;5060522;28;20431;-76
2022/07/12 01:08:12;;;;;;;3.38;1.10;;;;;;;;;;5060541;28;20071;-76
2022/07/12 01:10:39;;;;;;;3.90;0.93;;;;;;;;;;5064378;28;20059;-76
2022/07/12 01:13:05;;;;;;;3.53;0.90;;;;;;;;;;5059491;28;20834;-76
2022/07/12 01:15:31;;;;;;;2.50;0.80;;;;;;;;;;5061211;28;20043;-76
2022/07/12 01:17:57;;;;;;;3.35;0.98;;;;;;;;;;5064693;28;20039;-76
2022/07/12 01:20:24;;;;;;;5.28;1.10;;;;;;;;;;5061282;28;20029;-76
2022/07/12 01:22:52;;;;;;;4.25;0.98;;;;;;;;;;5067998;28;20028;-76
2022/07/12 01:25:18;;;;;;;3.72;0.80;;;;;;;;;;5065360;28;20032;-76
2022/07/12 01:27:44;;;;;;;6.72;1.20;;;;;;;;;;5063955;28;20075;-76
2022/07/12 01:30:10;;;;;;;4.50;0.90;;;;;;;;;;5062874;28;20028;-76
2022/07/12 01:32:36;;;;;;;4.55;1.10;;;;;;;;;;5061766;28;20418;-76
2022/07/12 01:35:04;;;;;;;5.03;1.10;;;;;;;;;;5067993;28;20532;-76
2022/07/12 01:37:37;;;;;;;9.90;2.72;;;;;;;;;;5060604;28;20045;-76
2022/07/12 01:40:04;;;;;;;10.55;3.38;;;;;;;;;;5065037;28;20699;-76
2022/07/12 01:42:30;;;;;;;7.20;2.88;;;;;;;;;;5054792;28;20431;-76
2022/07/12 01:44:57;;;;;;;9.55;3.42;;;;;;;;;;5067162;28;20079;-76
2022/07/12 01:47:25;;;;;;;9.40;3.15;;;;;;;;;;5061386;28;20086;-76
2022/07/12 01:49:51;;;;;;;7.80;2.45;;;;;;;;;;5064449;28;20098;-76
2022/07/12 01:52:17;;;;;;;8.65;2.88;;;;;;;;;;5060116;28;20028;-76
2022/07/12 01:54:44;;;;;;;10.82;3.33;;;;;;;;;;5066277;28;20046;-76
2022/07/12 01:57:10;;;;;;;10.45;3.60;;;;;;;;;;5062574;28;20044;-75
2022/07/12 01:59:36;;;;;;;10.60;4.03;;;;;;;;;;5064991;28;20139;-76
2022/07/12 02:02:03;;;;;;;15.57;4.30;;;;;;;;;;5062761;28;20432;-76
2022/07/12 02:04:29;;;;;;;14.10;4.50;;;;;;;;;;5060005;28;20595;-76
2022/07/12 02:06:55;;;;;;;8.68;3.80;;;;;;;;;;5061772;28;20040;-76
2022/07/12 02:09:21;;;;;;;11.05;3.30;;;;;;;;;;5065736;28;20489;-76
2022/07/12 02:11:48;;;;;;;6.28;2.80;;;;;;;;;;5066699;28;20028;-76
2022/07/12 02:14:14;;;;;;;9.10;3.28;;;;;;;;;;5061612;28;20123;-76
2022/07/12 02:16:41;;;;;;;10.68;2.50;;;;;;;;;;5059290;28;20693;-75
2022/07/12 02:19:07;;;;;;;7.18;2.90;;;;;;;;;;5059952;28;20043;-76
2022/07/12 02:21:33;;;;;;;7.68;2.33;;;;;;;;;;5063695;28;20048;-76
2022/07/12 02:23:59;;;;;;;5.63;1.90;;;;;;;;;;5061698;28;20387;-76
2022/07/12 02:26:26;;;;;;;6.13;1.95;;;;;;;;;;5064815;28;20113;-76
2022/07/12 02:28:52;;;;;;;7.10;1.50;;;;;;;;;;5058848;28;20048;-76
2022/07/12 02:31:18;;;;;;;4.90;1.55;;;;;;;;;;5060776;28;20129;-76
2022/07/12 02:33:44;;;;;;;4.43;1.52;;;;;;;;;;5066689;28;20037;-76
2022/07/12 02:36:10;;;;;;;5.78;1.38;;;;;;;;;;5064402;28;20131;-75
2022/07/12 02:38:36;;;;;;;5.13;1.58;;;;;;;;;;5064937;28;20475;-76
2022/07/12 02:41:02;;;;;;;5.75;1.10;;;;;;;;;;5059794;28;20028;-76
2022/07/12 02:43:29;;;;;;;4.50;1.23;;;;;;;;;;5061326;28;20041;-76
2022/07/12 02:45:58;;;;;;;4.53;1.02;;;;;;;;;;5063942;28;20565;-76
2022/07/12 02:48:24;;;;;;;4.68;1.15;;;;;;;;;;5056276;28;20124;-76
2022/07/12 02:50:50;;;;;;;4.07;1.30;;;;;;;;;;5063809;28;20104;-76
2022/07/12 02:53:16;;;;;;;3.92;1.08;;;;;;;;;;5067421;28;20064;-76
2022/07/12 02:55:42;;;;;;;6.10;1.38;;;;;;;;;;5063386;28;20431;-76
2022/07/12 02:58:08;;;;;;;5.32;1.40;;;;;;;;;;5063491;28;20123;-76
2022/07/12 03:00:35;;;;;;;4.38;1.30;;;;;;;;;;5064867;28;20036;-76
2022/07/12 03:03:02;;;;;;;7.15;1.90;;;;;;;;;;5063420;28;20028;-76
2022/07/12 03:05:28;;;;;;;4.28;1.55;;;;;;;;;;5059361;28;20028;-76
2022/07/12 03:07:54;;;;;;;7.80;2.15;;;;;;;;;;5070929;28;20082;-76
2022/07/12 03:10:20;;;;;;;8.07;2.08;;;;;;;;;;5059432;28;20037;-76
2022/07/12 03:12:46;;;;;;;7.50;1.80;;;;;;;;;;5067486;28;20058;-76
2022/07/12 03:15:12;;;;;;;7.50;1.67;;;;;;;;;;5059758;28;20791;-76
2022/07/12 03:17:38;;;;;;;5.25;1.80;;;;;;;;;;5060695;28;20091;-76
2022/07/12 03:20:11;;;;;;;5.70;1.55;;;;;;;;;;5061242;28;20039;-76
2022/07/12 03:22:37;;;;;;;5.53;1.58;;;;;;;;;;5055998;28;20371;-76
2022/07/12 03:25:03;;;;;;;4.97;1.60;;;;;;;;;;5059966;28;20036;-76
2022/07/12 03:27:31;;;;;;;3.63;1.05;;;;;;;;;;5065696;28;20043;-76
2022/07/12 03:29:57;;;;;;;4.88;1.10;;;;;;;;;;5057101;28;20032;-76
2022/07/12 03:32:23;;;;;;;8.10;1.35;;;;;;;;;;5062059;28;20475;-76
2022/07/12 03:34:49;;;;;;;6.57;1.33;;;;;;;;;;5062908;28;20047;-76
2022/07/12 03:37:15;;;;;;;3.83;1.10;;;;;;;;;;5062612;28;20052;-76
2022/07/12 03:39:41;;;;;;;3.47;1.00;;;;;;;;;;5061363;28;20542;-76
2022/07/12 03:42:07;;;;;;;4.63;1.38;;;;;;;;;;5065073;28;20052;-75
2022/07/12 03:44:33;;;;;;;5.20;1.77;;;;;;;;;;5059049;28;20462;-76
2022/07/12 03:47:00;;;;;;;5.03;1.13;;;;;;;;;;5061540;28;20498;-76
2022/07/12 03:49:26;;;;;;;3.72;1.17;;;;;;;;;;5066132;28;20036;-76
2022/07/12 03:51:52;;;;;;;4.88;1.65;;;;;;;;;;5059622;28;20127;-76
2022/07/12 03:54:18;;;;;;;12.77;2.67;;;;;;;;;;5063300;28;20131;-76
2022/07/12 03:59:29;;;;;;;6.18;1.95;;;;;;;;;;5063271;28;20922;-76
2022/07/12 04:01:55;;;;;;;7.43;2.10;;;;;;;;;;5062731;28;20107;-76
2022/07/12 04:04:21;;;;;;;7.47;2.00;;;;;;;;;;5065692;28;20032;-75
2022/07/12 04:06:47;;;;;;;4.85;1.85;;;;;;;;;;5060492;28;20020;-75
2022/07/12 04:09:13;;;;;;;8.00;1.83;;;;;;;;;;5064817;28;20528;-75
2022/07/12 04:11:39;;;;;;;6.55;2.38;;;;;;;;;;5065872;28;20025;-75
2022/07/12 04:14:05;;;;;;;6.60;1.85;;;;;;;;;;5058391;28;20107;-75
2022/07/12 04:16:31;;;;;;;5.28;2.15;;;;;;;;;;5057565;28;20107;-75
2022/07/12 04:18:58;;;;;;;6.32;2.28;;;;;;;;;;5060000;28;20044;-75
2022/07/12 04:21:24;;;;;;;7.40;2.10;;;;;;;;;;5055330;28;20050;-75
2022/07/12 04:23:50;;;;;;;6.60;1.92;;;;;;;;;;5058955;28;20029;-75
2022/07/12 04:26:16;;;;;;;8.48;1.40;;;;;;;;;;5063325;28;20065;-75
2022/07/12 04:28:42;;;;;;;5.07;1.40;;;;;;;;;;5062132;28;20093;-75
2022/07/12 04:31:09;;;;;;;5.13;2.00;;;;;;;;;;5064789;28;20028;-75
2022/07/12 04:33:35;;;;;;;11.43;2.03;;;;;;;;;;5061270;28;20036;-75
2022/07/12 04:36:01;;;;;;;10.00;2.05;;;;;;;;;;5062178;28;20036;-75
2022/07/12 04:38:27;;;;;;;9.00;2.03;;;;;;;;;;5055166;28;20071;-75
2022/07/12 04:40:53;;;;;;;6.25;1.52;;;;;;;;;;5061765;28;20035;-75
2022/07/12 04:43:19;;;;;;;6.60;1.70;;;;;;;;;;5059052;28;20033;-76
2022/07/12 04:45:45;;;;;;;6.15;1.73;;;;;;;;;;5061858;28;20066;-75
2022/07/12 04:48:11;;;;;;;7.82;2.05;;;;;;;;;;5061962;28;20033;-75
2022/07/12 04:50:37;;;;;;;12.20;3.22;;;;;;;;;;5063037;28;20044;-75
2022/07/12 04:53:03;;;;;;;7.15;2.15;;;;;;;;;;5064476;28;20036;-75
2022/07/12 04:55:29;;;;;;;6.80;2.35;;;;;;;;;;5061415;28;20086;-75
2022/07/12 04:57:55;;;;;;;7.55;2.30;;;;;;;;;;5062165;28;20036;-75
2022/07/12 05:00:22;;;;;;;9.70;2.63;;;;;;;;;;5064596;28;20456;-75
2022/07/12 05:02:48;;;;;;;11.10;2.53;;;;;;;;;;5062067;28;20036;-75
2022/07/12 05:05:14;;;;;;;8.13;2.15;;;;;;;;;;5062392;28;20478;-75
2022/07/12 05:07:41;;;;;;;12.02;2.67;;;;;;;;;;5062360;28;20510;-75
2022/07/12 05:10:07;;;;;;;12.68;2.50;;;;;;;;;;5061010;28;20037;-75
2022/07/12 05:12:35;;;;;;;8.50;3.05;;;;;;;;;;5065332;28;20043;-75
2022/07/12 05:15:01;;;;;;;13.00;2.58;;;;;;;;;;5065284;28;20032;-75
2022/07/12 05:17:27;;;;;;;8.98;2.53;;;;;;;;;;5071210;28;20048;-75
2022/07/12 05:19:54;;;;;;;12.68;2.85;;;;;;;;;;5065270;28;20807;-75
2022/07/12 05:22:20;;;;;;;10.18;2.67;;;;;;;;;;5069455;28;20029;-75
2022/07/12 05:24:46;;;;;;;10.65;2.50;;;;;;;;;;5062459;28;20426;-75
2022/07/12 05:27:12;;;;;;;10.57;3.13;;;;;;;;;;5064950;28;20032;-75
2022/07/12 05:29:38;;;;;;;11.68;3.10;;;;;;;;;;5064615;28;20045;-75
2022/07/12 05:32:05;;;;;;;15.82;2.63;;;;;;;;;;5061491;28;20307;-75
2022/07/12 05:34:31;;;;;;;13.23;3.55;;;;;;;;;;5062902;28;20037;-75
2022/07/12 05:36:57;;;;;;;15.23;3.25;;;;;;;;;;5066138;28;20055;-75
2022/07/12 05:39:23;;;;;;;10.52;2.60;;;;;;;;;;5065662;28;20125;-75
2022/07/12 05:41:49;;;;;;;11.30;3.05;;;;;;;;;;5067608;28;20055;-75
2022/07/12 05:44:17;;;;;;;10.75;2.83;;;;;;;;;;5061193;28;20047;-75
2022/07/12 05:46:43;;;;;;;7.20;2.42;;;;;;;;;;5062110;28;20035;-75
2022/07/12 05:49:09;;;;;;;11.90;3.03;;;;;;;;;;5060659;28;20033;-75
2022/07/12 05:54:20;;;;;;;21.63;4.30;;;;;;;;;;5060467;28;20545;-75
2022/07/12 05:56:46;;;;;;;16.75;4.70;;;;;;;;;;5063704;28;20028;-75
2022/07/12 05:59:12;;;;;;;11.02;3.85;;;;;;;;;;5062738;28;20033;-75
2022/07/12 06:01:38;;;;;;;12.02;4.03;;;;;;;;;;5064749;28;20032;-75
2022/07/12 06:04:04;;;;;;;10.27;3.22;;;;;;;;;;5061596;28;20075;-75
2022/07/12 06:06:30;;;;;;;7.95;2.50;;;;;;;;;;5055141;28;20051;-75
2022/07/12 06:08:56;;;;;;;7.78;2.28;;;;;;;;;;5063182;28;20471;-75
2022/07/12 06:11:22;;;;;;;6.95;2.42;;;;;;;;;;5054079;28;20041;-75
2022/07/12 06:13:50;;;;;;;10.77;2.83;;;;;;;;;;5059207;28;20032;-76
2022/07/12 06:16:16;;;;;;;13.63;3.30;;;;;;;;;;5061918;28;20036;-75
2022/07/12 06:18:42;;;;;;;10.32;2.63;;;;;;;;;;5054289;28;20178;-75
2022/07/12 06:21:08;;;;;;;10.38;3.08;;;;;;;;;;5060980;28;20828;-75
2022/07/12 06:23:34;;;;;;;11.40;2.65;;;;;;;;;;5056050;28;20425;-75
2022/07/12 06:26:01;;;;;;;8.88;2.70;;;;;;;;;;5062580;28;20098;-75
2022/07/12 06:28:27;;;;;;;8.93;2.42;;;;;;;;;;5055771;28;20037;-75
2022/07/12 06:30:53;;;;;;;10.10;2.88;;;;;;;;;;5060886;28;20037;-76
2022/07/12 06:33:19;;;;;;;10.50;3.40;;;;;;;;;;5060309;28;20040;-75
2022/07/12 06:35:45;;;;;;;9.23;3.20;;;;;;;;;;5058409;28;20032;-75
2022/07/12 06:38:11;;;;;;;6.20;2.28;;;;;;;;;;5057584;28;20033;-75
2022/07/12 06:40:37;;;;;;;8.90;3.08;;;;;;;;;;5063158;28;20029;-75
2022/07/12 06:43:03;;;;;;;11.20;2.85;;;;;;;;;;5056068;28;20474;-75
2022/07/12 06:45:30;;;;;;;7.35;2.40;;;;;;;;;;5061127;28;20058;-75
2022/07/12 06:47:56;;;;;;;10.70;2.63;;;;;;;;;;5060707;28;20056;-75
2022/07/12 06:50:22;;;;;;;12.25;2.60;;;;;;;;;;5060774;28;20044;-75
2022/07/12 06:52:48;;;;;;;8.07;2.20;;;;;;;;;;5060029;28;20036;-75
2022/07/12 06:55:14;;;;;;;10.45;2.67;;;;;;;;;;5061962;28;20043;-75
2022/07/12 06:57:40;;;;;;;10.25;2.20;;;;;;;;;;5057887;28;20047;-75
2022/07/12 07:00:07;;;;;;;7.32;1.98;;;;;;;;;;5063753;28;20028;-75
2022/07/12 07:02:33;;;;;;;10.55;1.92;;;;;;;;;;5061574;28;20527;-75
2022/07/12 07:05:00;;;;;;;8.88;2.13;;;;;;;;;;5057551;28;20028;-75
2022/07/12 07:07:26;;;;;;;11.93;2.20;;;;;;;;;;5064356;28;20110;-75
2022/07/12 07:09:52;;;;;;;9.73;2.40;;;;;;;;;;5056673;28;20070;-75
2022/07/12 07:12:18;;;;;;;10.10;2.50;;;;;;;;;;5060261;28;20029;-75
2022/07/12 07:14:44;;;;;;;10.80;2.50;;;;;;;;;;5060318;28;20054;-75
2022/07/12 07:17:10;;;;;;;8.98;2.53;;;;;;;;;;5060067;28;20071;-76
2022/07/12 07:19:37;;;;;;;7.32;2.00;;;;;;;;;;5058903;28;20033;-75
2022/07/12 07:22:03;;;;;;;9.50;1.75;;;;;;;;;;5055172;28;20029;-75
2022/07/12 07:24:29;;;;;;;4.85;1.45;;;;;;;;;;5058427;28;20041;-75
2022/07/12 07:26:55;;;;;;;5.40;1.65;;;;;;;;;;5057104;28;20368;-75
2022/07/12 07:32:06;;;;;;;9.00;2.28;;;;;;;;;;5060553;28;20473;-76
2022/07/12 07:34:32;;;;;;;10.13;1.85;;;;;;;;;;5059804;28;20139;-75
2022/07/12 07:36:58;;;;;;;6.35;1.90;;;;;;;;;;5059217;28;20045;-75
2022/07/12 07:39:24;;;;;;;10.77;2.35;;;;;;;;;;5062089;28;20039;-76
2022/07/12 07:41:50;;;;;;;8.75;2.13;;;;;;;;;;5058076;28;20387;-75
2022/07/12 07:44:16;;;;;;;11.90;1.83;;;;;;;;;;5052686;28;20040;-75
2022/07/12 07:46:42;;;;;;;8.93;2.10;;;;;;;;;;5057697;28;20135;-76
2022/07/12 07:49:08;;;;;;;6.35;1.75;;;;;;;;;;5054359;28;20446;-76
2022/07/12 07:51:34;;;;;;;6.43;2.03;;;;;;;;;;5054682;28;20032;-75
2022/07/12 07:54:02;;;;;;;6.20;1.70;;;;;;;;;;5059634;28;20076;-76
2022/07/12 07:56:28;;;;;;;7.30;1.83;;;;;;;;;;5058645;28;20468;-75
2022/07/12 07:58:54;;;;;;;11.02;1.60;;;;;;;;;;5059366;28;20045;-75
2022/07/12 08:01:20;;;;;;;5.60;1.65;;;;;;;;;;5051280;28;20105;-76
2022/07/12 08:04:06;;;;;;;8.13;1.73;;;;;;;;;;5063395;28;20049;-75
2022/07/12 08:06:32;;;;;;;11.20;2.05;;;;;;;;;;5057101;28;20484;-75
2022/07/12 08:08:58;;;;;;;8.57;1.70;;;;;;;;;;5058223;28;20037;-75
2022/07/12 08:11:24;;;;;;;5.68;1.60;;;;;;;;;;5048674;28;20029;-76
2022/07/12 08:13:50;;;;;;;9.10;1.60;;;;;;;;;;5057685;28;20043;-75
2022/07/12 08:16:16;;;;;;;5.18;1.17;;;;;;;;;;5055907;28;20028;-75
2022/07/12 08:18:42;;;;;;;8.40;1.70;;;;;;;;;;5061327;28;20467;-75
2022/07/12 08:21:08;;;;;;;9.93;2.17;;;;;;;;;;5058443;28;20472;-76
2022/07/12 08:23:34;;;;;;;6.40;1.60;;;;;;;;;;5053012;28;20041;-76
2022/07/12 08:26:00;;;;;;;6.97;1.58;;;;;;;;;;5058426;28;20025;-76
2022/07/12 08:28:26;;;;;;;5.97;1.40;;;;;;;;;;5057161;28;20063;-75
2022/07/12 08:30:52;;;;;;;8.02;1.88;;;;;;;;;;5058220;28;20455;-75
2022/07/12 08:33:19;;;;;;;7.72;1.60;;;;;;;;;;5055932;28;20470;-75
2022/07/12 08:35:45;;;;;;;6.63;1.50;;;;;;;;;;5061240;28;20714;-76
2022/07/12 08:38:11;;;;;;;4.68;1.48;;;;;;;;;;5056841;28;20458;-76
2022/07/12 08:40:37;;;;;;;8.05;1.58;;;;;;;;;;5061109;28;20082;-76
2022/07/12 08:43:04;;;;;;;8.90;1.70;;;;;;;;;;5055646;28;20947;-76
2022/07/12 08:45:30;;;;;;;9.73;1.48;;;;;;;;;;5056400;28;20028;-76
2022/07/12 08:47:56;;;;;;;9.07;1.58;;;;;;;;;;5057408;28;20087;-75
2022/07/12 08:50:26;;;;;;;5.10;1.17;;;;;;;;;;5056642;28;20715;-76
2022/07/12 08:52:53;;;;;;;5.40;1.43;;;;;;;;;;5056200;28;20036;-76
2022/07/12 08:55:19;;;;;;;8.40;1.80;;;;;;;;;;5058282;28;20041;-76
2022/07/12 08:57:46;;;;;;;6.20;1.15;;;;;;;;;;5055077;28;20060;-76
2022/07/12 09:00:12;;;;;;;5.82;1.25;;;;;;;;;;5058139;28;20528;-75
2022/07/12 09:02:55;;;;;;;4.93;1.20;;;;;;;;;;5055460;28;20083;-76
2022/07/12 09:05:22;;;;;;;7.32;1.25;;;;;;;;;;5057157;28;20033;-76
2022/07/12 09:07:48;;;;;;;7.88;1.58;;;;;;;;;;5059761;28;20041;-75
2022/07/12 09:10:15;;;;;;;7.05;1.20;;;;;;;;;;5057661;28;20864;-76
2022/07/12 09:12:41;;;;;;;7.68;1.00;;;;;;;;;;5056385;28;20051;-76
2022/07/12 09:15:11;;;;;;;4.68;1.27;;;;;;;;;;5054773;28;20058;-75
2022/07/12 09:17:37;;;;;;;8.20;1.00;;;;;;;;;;5056713;28;20048;-76
2022/07/12 09:20:04;;;;;;;4.18;0.90;;;;;;;;;;5059554;28;20375;-75
2022/07/12 09:22:30;;;;;;;5.65;1.30;;;;;;;;;;5056947;28;20033;-76
2022/07/12 09:24:56;;;;;;;4.13;1.10;;;;;;;;;;5058409;28;20028;-76
2022/07/12 09:27:26;;;;;;;6.60;1.00;;;;;;;;;;5058330;28;20988;-76
2022/07/12 09:29:52;;;;;;;5.70;0.93;;;;;;;;;;5056272;28;20062;-76
2022/07/12 09:37:49;;;;;;;4.57;1.33;;;;;;;;;;5058731;28;20079;-76
2022/07/12 09:40:15;;;;;;;5.10;1.15;;;;;;;;;;5057775;28;20060;-75
2022/07/12 09:42:41;;;;;;;9.30;1.10;;;;;;;;;;5063851;28;20060;-76
2022/07/12 09:45:09;;;;;;;4.72;1.63;;;;;;;;;;5055598;28;20025;-76
2022/07/12 09:47:35;;;;;;;8.10;0.90;;;;;;;;;;5063425;28;20048;-76
2022/07/12 09:50:01;;;;;;;4.60;1.02;;;;;;;;;;5056789;28;20036;-76
2022/07/12 09:52:28;;;;;;;5.43;1.35;;;;;;;;;;5064234;28;20045;-75
2022/07/12 09:54:55;;;;;;;6.30;0.93;;;;;;;;;;5063356;28;20028;-76
2022/07/12 09:57:21;;;;;;;3.30;0.70;;;;;;;;;;5058029;28;20143;-75
2022/07/12 09:59:47;;;;;;;6.60;1.20;;;;;;;;;;5062548;28;20824;-76
2022/07/12 10:02:15;;;;;;;11.25;1.35;;;;;;;;;;5059668;28;20029;-76
2022/07/12 10:04:42;;;;;;;5.90;0.95;;;;;;;;;;5063349;28;20031;-76
2022/07/12 10:07:08;;;;;;;8.02;1.08;;;;;;;;;;5059823;28;20021;-75
2022/07/12 10:09:36;;;;;;;10.82;1.33;;;;;;;;;;5059599;28;20137;-76
2022/07/12 10:12:03;;;;;;;4.03;1.15;;;;;;;;;;5059768;28;20694;-75
2022/07/12 10:14:29;;;;;;;2.60;0.82;;;;;;;;;;5060426;28;20029;-76
2022/07/12 10:16:56;;;;;;;4.15;0.80;;;;;;;;;;5059571;28;20475;-76
2022/07/12 10:19:23;;;;;;;4.70;0.88;;;;;;;;;;5058969;28;20033;-76
2022/07/12 10:21:50;;;;;;;4.00;0.70;;;;;;;;;;5059287;28;20154;-76
2022/07/12 10:24:31;;;;;;;7.25;0.90;;;;;;;;;;5057984;28;20039;-76
2022/07/12 10:26:58;;;;;;;4.82;0.80;;;;;;;;;;5057834;28;20048;-76
2022/07/12 10:29:25;;;;;;;2.78;0.80;;;;;;;;;;5057796;28;20116;-75
2022/07/12 10:31:51;;;;;;;7.63;0.90;;;;;;;;;;5058323;28;20029;-76
2022/07/12 10:34:21;;;;;;;3.25;0.98;;;;;;;;;;5059140;28;20102;-76
2022/07/12 10:36:56;;;;;;;2.45;0.70;;;;;;;;;;5059154;28;20045;-76
2022/07/12 10:39:22;;;;;;;3.13;0.80;;;;;;;;;;5059169;28;20040;-76
2022/07/12 10:42:20;;;;;;;5.30;1.20;;;;;;;;;;5059298;28;20078;-76
2022/07/12 10:44:47;;;;;;;3.40;0.90;;;;;;;;;;5017179;28;20052;-76
2022/07/12 10:47:15;;;;;;;6.05;0.77;;;;;;;;;;5058510;28;20028;-76
2022/07/12 10:49:49;;;;;;;5.43;0.80;;;;;;;;;;5060898;28;20119;-76
2022/07/12 10:52:16;;;;;;;4.45;0.45;;;;;;;;;;5056563;28;20387;-76
2022/07/12 10:55:09;;;;;;;3.55;0.60;;;;;;;;;;5059925;28;20036;-76
2022/07/12 10:57:43;;;;;;;5.15;0.80;;;;;;;;;;5056838;28;20052;-76
2022/07/12 11:00:10;;;;;;;2.75;0.70;;;;;;;;;;5062687;28;20024;-76
2022/07/12 11:02:36;;;;;;;6.50;1.20;;;;;;;;;;5059343;28;20040;-76
2022/07/12 11:05:02;;;;;;;3.47;0.70;;;;;;;;;;5062613;28;20062;-76
2022/07/12 11:07:29;;;;;;;5.22;0.60;;;;;;;;;;5060472;28;20041;-76
2022/07/12 11:09:55;;;;;;;3.58;0.65;;;;;;;;;;5054484;28;21846;-76
2022/07/12 11:12:21;;;;;;;4.93;1.20;;;;;;;;;;5056734;28;20071;-76
2022/07/12 11:14:47;;;;;;;3.58;0.98;;;;;;;;;;5060877;28;20044;-76
2022/07/12 11:17:14;;;;;;;3.70;0.90;;;;;;;;;;5060446;28;20032;-76
2022/07/12 11:19:40;;;;;;;4.95;1.00;;;;;;;;;;5059064;28;20082;-76
2022/07/12 11:22:06;;;;;;;5.20;0.85;;;;;;;;;;5059835;28;20063;-76
2022/07/12 11:24:34;;;;;;;5.53;0.98;;;;;;;;;;5060512;28;20025;-77
2022/07/12 11:27:01;;;;;;;7.10;0.70;;;;;;;;;;5056566;28;20074;-76
2022/07/12 11:29:27;;;;;;;3.78;1.05;;;;;;;;;;5061798;28;20078;-76
2022/07/12 11:32:05;;;;;;;6.30;1.30;;;;;;;;;;5057958;28;20189;-76
2022/07/12 11:34:31;;;;;;;3.80;0.60;;;;;;;;;;5058676;28;20025;-76
2022/07/12 11:36:58;;;;;;;4.90;0.75;;;;;;;;;;5059696;28;20048;-76
2022/07/12 11:39:34;;;;;;;5.28;0.90;;;;;;;;;;5056338;28;20765;-76
2022/07/12 11:42:01;;;;;;;4.40;1.00;;;;;;;;;;5051651;28;20031;-76
2022/07/12 11:44:45;;;;;;;6.63;0.88;;;;;;;;;;5057193;28;20041;-76
2022/07/12 11:47:12;;;;;;;4.70;0.70;;;;;;;;;;5060087;28;20060;-76
2022/07/12 11:49:43;;;;;;;5.10;0.90;;;;;;;;;;5059372;28;20032;-76
2022/07/12 11:52:09;;;;;;;4.90;0.77;;;;;;;;;;5056093;28;20063;-76
2022/07/12 11:54:35;;;;;;;4.50;0.98;;;;;;;;;;5058338;28;20064;-76
2022/07/12 11:57:09;;;;;;;3.05;0.98;;;;;;;;;;5055548;28;20059;-76
2022/07/12 11:59:35;;;;;;;4.03;0.80;;;;;;;;;;5054922;28;20037;-76
2022/07/12 12:02:05;;;;;;;3.08;0.90;;;;;;;;;;5054713;28;20485;-76
2022/07/12 12:04:32;;;;;;;3.60;0.95;;;;;;;;;;5057861;28;20041;-76
2022/07/12 12:06:58;;;;;;;6.18;0.93;;;;;;;;;;5053831;28;20040;-76
2022/07/12 12:09:24;;;;;;;4.95;0.85;;;;;;;;;;5055053;28;20044;-76
2022/07/12 12:11:50;;;;;;;6.35;1.10;;;;;;;;;;5059465;28;20024;-76
2022/07/12 12:14:16;;;;;;;3.90;0.70;;;;;;;;;;5062220;28;20032;-76
2022/07/12 12:16:42;;;;;;;7.50;1.00;;;;;;;;;;5059137;28;20040;-76
2022/07/12 12:19:11;;;;;;;3.83;0.70;;;;;;;;;;5056933;28;20037;-76
2022/07/12 12:21:37;;;;;;;6.50;1.00;;;;;;;;;;5058720;28;20044;-76
2022/07/12 12:24:10;;;;;;;2.45;0.60;;;;;;;;;;5055838;28;20095;-76
2022/07/12 12:26:37;;;;;;;2.78;0.45;;;;;;;;;;5059214;28;20553;-77
2022/07/12 12:29:03;;;;;;;2.25;0.50;;;;;;;;;;5056931;28;20424;-77
2022/07/12 12:31:29;;;;;;;6.22;0.60;;;;;;;;;;5058419;28;20032;-76
2022/07/12 12:33:58;;;;;;;5.00;0.80;;;;;;;;;;5053664;28;20622;-76
2022/07/12 12:36:24;;;;;;;3.85;0.70;;;;;;;;;;5055059;28;20059;-76
2022/07/12 12:38:51;;;;;;;6.30;1.30;;;;;;;;;;5056277;28;20418;-76
2022/07/12 12:41:17;;;;;;;4.78;0.70;;;;;;;;;;5057947;28;20064;-76
2022/07/12 12:43:44;;;;;;;2.88;0.70;;;;;;;;;;5060939;28;20098;-76
2022/07/12 12:46:10;;;;;;;8.10;0.77;;;;;;;;;;5060397;28;20059;-76
2022/07/12 12:48:36;;;;;;;4.68;0.70;;;;;;;;;;5058565;28;20125;-76
2022/07/12 12:51:09;;;;;;;4.55;0.60;;;;;;;;;;5055916;28;20039;-76
2022/07/12 12:53:39;;;;;;;3.80;0.80;;;;;;;;;;5055389;28;20056;-76
2022/07/12 12:56:15;;;;;;;3.65;0.80;;;;;;;;;;5055017;28;20025;-76
2022/07/12 12:58:41;;;;;;;4.20;1.02;;;;;;;;;;5054229;28;20043;-76
2022/07/12 13:01:08;;;;;;;2.55;0.50;;;;;;;;;;5061194;28;20128;-76
2022/07/12 13:03:34;;;;;;;2.10;0.50;;;;;;;;;;5059190;28;20037;-76
2022/07/12 13:06:01;;;;;;;2.92;0.60;;;;;;;;;;5060607;28;20024;-76
2022/07/12 13:08:27;;;;;;;5.00;0.73;;;;;;;;;;5056502;28;20578;-76
2022/07/12 13:13:39;;;;;;;3.83;0.50;;;;;;;;;;5057493;28;20110;-76
2022/07/12 13:16:05;;;;;;;3.88;0.70;;;;;;;;;;5059125;28;20078;-76
2022/07/12 13:18:31;;;;;;;4.35;0.73;;;;;;;;;;5060811;28;20040;-76
2022/07/12 13:20:57;;;;;;;4.22;0.70;;;;;;;;;;5065081;28;20020;-76
2022/07/12 13:23:23;;;;;;;2.97;0.70;;;;;;;;;;5055012;28;20037;-76
2022/07/12 13:25:49;;;;;;;1.35;0.40;;;;;;;;;;5057470;28;20360;-76
2022/07/12 13:28:15;;;;;;;3.92;0.90;;;;;;;;;;5061161;28;20043;-76
2022/07/12 13:30:41;;;;;;;3.13;0.43;;;;;;;;;;5060855;28;20032;-76
2022/07/12 13:33:07;;;;;;;2.65;0.50;;;;;;;;;;5057611;28;20044;-76
2022/07/12 13:35:33;;;;;;;3.58;0.50;;;;;;;;;;5061279;28;20033;-77
2022/07/12 13:37:59;;;;;;;4.45;0.50;;;;;;;;;;5064642;28;20098;-76
2022/07/12 13:40:25;;;;;;;1.92;0.55;;;;;;;;;;5058370;28;20039;-76
2022/07/12 13:42:52;;;;;;;2.75;0.65;;;;;;;;;;5060054;28;20032;-76
2022/07/12 13:45:25;;;;;;;5.05;0.40;;;;;;;;;;5061072;28;20027;-76
2022/07/12 13:47:52;;;;;;;3.65;0.52;;;;;;;;;;5056403;28;20044;-76
2022/07/12 13:50:19;;;;;;;1.35;0.22;;;;;;;;;;5063083;28;20035;-76
2022/07/12 13:52:46;;;;;;;4.57;0.50;;;;;;;;;;5059924;28;20557;-76
2022/07/12 13:55:13;;;;;;;1.85;0.40;;;;;;;;;;5059647;28;20645;-76
2022/07/12 13:57:41;;;;;;;4.47;0.40;;;;;;;;;;5061153;28;20040;-76
2022/07/12 14:00:10;;;;;;;2.45;0.60;;;;;;;;;;5062539;28;20033;-76
2022/07/12 14:02:36;;;;;;;3.95;0.73;;;;;;;;;;5059537;28;20124;-76
2022/07/12 14:05:03;;;;;;;2.17;0.50;;;;;;;;;;5061170;28;20138;-76
2022/07/12 14:07:29;;;;;;;5.93;0.52;;;;;;;;;;5059035;28;20036;-76
2022/07/12 14:09:55;;;;;;;2.78;0.30;;;;;;;;;;5059142;28;20032;-76
2022/07/12 14:12:21;;;;;;;2.25;0.38;;;;;;;;;;5061976;28;20047;-76
2022/07/12 14:17:33;;;;;;;1.75;0.40;;;;;;;;;;5056943;28;20091;-76
2022/07/12 14:19:59;;;;;;;2.60;0.50;;;;;;;;;;5061545;28;20051;-76
2022/07/12 14:22:25;;;;;;;2.78;0.40;;;;;;;;;;5061769;28;20040;-76
2022/07/12 14:24:51;;;;;;;5.82;0.60;;;;;;;;;;5056656;28;20032;-76
2022/07/12 14:27:17;;;;;;;0.95;0.20;;;;;;;;;;5062070;28;20062;-76
2022/07/12 14:29:43;;;;;;;2.72;0.20;;;;;;;;;;5059685;28;20037;-76
2022/07/12 14:32:10;;;;;;;3.22;0.32;;;;;;;;;;5059127;28;20032;-76
2022/07/12 14:34:36;;;;;;;2.15;0.68;;;;;;;;;;5055500;28;20145;-76
2022/07/12 14:37:02;;;;;;;2.30;0.45;;;;;;;;;;5060810;28;20099;-76
2022/07/12 14:39:28;;;;;;;2.10;0.30;;;;;;;;;;5060573;28;20403;-76
2022/07/12 14:41:55;;;;;;;1.08;0.25;;;;;;;;;;5058917;28;20090;-76
2022/07/12 14:44:21;;;;;;;1.65;0.20;;;;;;;;;;5058683;28;20029;-77
2022/07/12 14:46:47;;;;;;;2.45;0.32;;;;;;;;;;5062560;28;20345;-76
2022/07/12 14:49:13;;;;;;;1.48;0.30;;;;;;;;;;5056740;28;20036;-76
2022/07/12 14:51:40;;;;;;;2.63;0.30;;;;;;;;;;5061198;28;20371;-76
2022/07/12 14:54:06;;;;;;;0.90;0.30;;;;;;;;;;5058267;28;20121;-76
2022/07/12 14:56:32;;;;;;;4.63;0.30;;;;;;;;;;5058566;28;20037;-76
2022/07/12 14:58:58;;;;;;;1.52;0.30;;;;;;;;;;5059580;28;20364;-76